createdAt,value
2022-09-21T00:01:17.662Z,12.55
2022-09-21T00:03:44.966Z,12.59
2022-09-21T00:06:15.903Z,12.55
2022-09-21T00:08:43.220Z,12.52
2022-09-21T00:11:34.208Z,12.57
2022-09-21T00:14:04.542Z,12.48
2022-09-21T00:16:32.065Z,12.55
2022-09-21T00:18:59.697Z,12.45
2022-09-21T00:21:27.902Z,12.53
2022-09-21T00:23:55.000Z,12.41
2022-09-21T00:26:23.962Z,12.36
2022-09-21T00:28:59.250Z,12.40
2022-09-21T00:31:27.683Z,12.37
2022-09-21T00:33:54.853Z,12.30
2022-09-21T00:36:23.693Z,12.32
2022-09-21T00:38:52.654Z,12.34
2022-09-21T00:41:19.868Z,12.43
2022-09-21T00:43:49.526Z,12.45
2022-09-21T00:46:27.340Z,12.56
2022-09-21T00:48:54.388Z,12.54
2022-09-21T00:51:21.569Z,12.42
2022-09-21T00:53:53.192Z,12.38
2022-09-21T00:56:20.256Z,12.30
2022-09-21T00:58:50.990Z,12.36
2022-09-21T01:01:18.859Z,12.20
2022-09-21T01:03:50.894Z,12.14
2022-09-21T01:06:20.184Z,12.09
2022-09-21T01:08:52.676Z,12.21
2022-09-21T01:11:59.977Z,12.14
2022-09-21T01:14:53.343Z,12.22
2022-09-21T01:17:56.200Z,11.97
2022-09-21T01:21:11.214Z,12.03
2022-09-21T01:23:45.898Z,11.96
2022-09-21T01:26:34.504Z,11.82
2022-09-21T01:29:06.870Z,11.77
2022-09-21T01:31:41.951Z,11.74
2022-09-21T01:34:19.841Z,11.65
2022-09-21T01:36:49.879Z,11.61
2022-09-21T01:39:19.083Z,11.59
2022-09-21T01:41:47.770Z,11.57
2022-09-21T01:44:20.758Z,11.52
2022-09-21T01:46:48.756Z,11.50
2022-09-21T01:49:19.903Z,11.47
2022-09-21T01:51:54.276Z,11.54
2022-09-21T01:54:45.464Z,11.54
2022-09-21T01:57:21.197Z,11.45
2022-09-21T01:59:54.397Z,11.35
2022-09-21T02:02:44.245Z,11.36
2022-09-21T02:05:11.754Z,11.44
2022-09-21T02:07:39.576Z,11.38
2022-09-21T02:10:10.330Z,11.39
2022-09-21T02:12:37.580Z,11.37
2022-09-21T02:15:04.728Z,11.22
2022-09-21T02:17:44.197Z,11.21
2022-09-21T02:20:23.789Z,11.08
2022-09-21T02:23:17.685Z,11.07
2022-09-21T02:25:59.195Z,11.06
2022-09-21T02:28:28.995Z,11.12
2022-09-21T02:31:13.988Z,11.22
2022-09-21T02:33:59.484Z,11.21
2022-09-21T02:36:38.551Z,11.09
2022-09-21T02:39:13.625Z,11.16
2022-09-21T02:42:00.049Z,11.10
2022-09-21T02:44:45.648Z,11.09
2022-09-21T02:47:31.416Z,11.09
2022-09-21T02:50:16.380Z,11.09
2022-09-21T02:52:44.387Z,11.11
2022-09-21T02:55:13.224Z,11.02
2022-09-21T02:57:40.955Z,11.02
2022-09-21T03:00:08.441Z,11.07
2022-09-21T03:02:37.467Z,11.09
2022-09-21T03:05:05.105Z,10.86
2022-09-21T03:07:32.532Z,10.95
2022-09-21T03:09:59.188Z,10.95
2022-09-21T03:12:26.778Z,10.83
2022-09-21T03:14:53.556Z,10.82
2022-09-21T03:17:20.238Z,10.93
2022-09-21T03:19:46.934Z,10.92
2022-09-21T03:22:13.562Z,10.98
2022-09-21T03:24:46.178Z,10.85
2022-09-21T03:27:18.487Z,10.77
2022-09-21T03:29:45.840Z,10.76
2022-09-21T03:32:13.728Z,10.92
2022-09-21T03:34:40.883Z,10.80
2022-09-21T03:37:09.031Z,10.91
2022-09-21T03:39:36.662Z,10.79
2022-09-21T03:42:04.130Z,10.70
2022-09-21T03:44:30.968Z,10.72
2022-09-21T03:46:58.202Z,10.70
2022-09-21T03:49:25.159Z,10.75
2022-09-21T03:51:51.767Z,10.59
2022-09-21T03:54:18.438Z,10.60
2022-09-21T03:56:45.061Z,10.65
2022-09-21T03:59:14.321Z,10.59
2022-09-21T04:01:42.206Z,10.47
2022-09-21T04:04:09.198Z,10.54
2022-09-21T04:06:36.473Z,10.55
2022-09-21T04:09:03.553Z,10.51
2022-09-21T04:11:32.403Z,10.59
2022-09-21T04:13:59.825Z,10.52
2022-09-21T04:16:27.386Z,10.51
2022-09-21T04:18:54.467Z,10.51
2022-09-21T04:21:22.195Z,10.37
2022-09-21T04:23:49.872Z,10.52
2022-09-21T04:26:23.045Z,10.40
2022-09-21T04:28:50.646Z,10.40
2022-09-21T04:31:17.749Z,10.28
2022-09-21T04:33:44.957Z,10.12
2022-09-21T04:36:11.590Z,10.32
2022-09-21T04:38:38.323Z,10.30
2022-09-21T04:41:05.046Z,10.35
2022-09-21T04:43:31.680Z,10.31
2022-09-21T04:45:58.524Z,10.36
2022-09-21T04:48:25.109Z,10.36
2022-09-21T04:50:51.744Z,10.28
2022-09-21T04:53:18.386Z,10.17
2022-09-21T04:55:46.246Z,10.25
2022-09-21T04:58:12.959Z,10.22
2022-09-21T05:00:39.613Z,10.19
2022-09-21T05:03:06.408Z,10.06
2022-09-21T05:05:33.252Z,10.05
2022-09-21T05:07:59.969Z,10.12
2022-09-21T05:10:26.840Z,10.17
2022-09-21T05:12:53.517Z,10.34
2022-09-21T05:15:21.916Z,10.30
2022-09-21T05:17:48.622Z,10.28
2022-09-21T05:20:15.234Z,10.36
2022-09-21T05:22:41.869Z,10.21
2022-09-21T05:25:09.369Z,10.22
2022-09-21T05:27:37.460Z,10.30
2022-09-21T05:30:05.779Z,10.43
2022-09-21T05:33:17.477Z,10.49
2022-09-21T05:36:02.993Z,10.40
2022-09-21T05:38:29.967Z,10.38
2022-09-21T05:40:56.995Z,10.15
2022-09-21T05:43:23.885Z,10.01
2022-09-21T05:45:56.942Z,10.15
2022-09-21T05:48:37.323Z,10.19
2022-09-21T05:51:14.072Z,10.20
2022-09-21T05:53:52.795Z,10.08
2022-09-21T05:56:41.433Z,9.98
2022-09-21T05:59:27.987Z,10.00
2022-09-21T06:02:07.258Z,10.05
2022-09-21T06:04:34.228Z,9.94
2022-09-21T06:07:00.935Z,9.96
2022-09-21T06:09:27.912Z,10.01
2022-09-21T06:11:54.554Z,10.01
2022-09-21T06:14:25.482Z,10.05
2022-09-21T06:16:53.062Z,10.06
2022-09-21T06:19:19.869Z,10.11
2022-09-21T06:21:46.523Z,10.19
2022-09-21T06:24:13.156Z,10.16
2022-09-21T06:26:39.791Z,10.27
2022-09-21T06:29:06.541Z,10.54
2022-09-21T06:31:33.516Z,10.61
2022-09-21T06:34:00.585Z,10.70
2022-09-21T06:36:27.331Z,10.93
2022-09-21T06:38:54.143Z,10.94
2022-09-21T06:41:21.535Z,11.23
2022-09-21T06:43:48.702Z,11.33
2022-09-21T06:46:15.585Z,11.64
2022-09-21T06:48:42.399Z,11.88
2022-09-21T06:51:10.136Z,12.02
2022-09-21T06:53:36.788Z,11.95
2022-09-21T06:56:10.311Z,11.88
2022-09-21T06:58:37.686Z,12.01
2022-09-21T07:01:14.056Z,12.16
2022-09-21T07:03:42.208Z,12.38
2022-09-21T07:06:15.559Z,12.35
2022-09-21T07:11:29.452Z,12.42
2022-09-21T07:13:56.922Z,12.35
2022-09-21T07:16:24.192Z,12.62
2022-09-21T07:18:50.909Z,12.69
2022-09-21T07:21:17.555Z,12.93
2022-09-21T07:23:44.306Z,12.84
2022-09-21T07:26:13.449Z,13.22
2022-09-21T07:28:40.715Z,13.00
2022-09-21T07:31:13.955Z,13.26
2022-09-21T07:33:41.703Z,13.30
2022-09-21T07:36:12.004Z,13.24
2022-09-21T07:38:41.708Z,13.22
2022-09-21T07:41:10.391Z,13.40
2022-09-21T07:43:39.404Z,13.61
2022-09-21T07:46:11.258Z,13.64
2022-09-21T07:48:37.994Z,13.69
2022-09-21T07:51:06.750Z,13.77
2022-09-21T07:53:34.627Z,13.87
2022-09-21T07:56:03.635Z,13.86
2022-09-21T07:58:49.465Z,14.06
2022-09-21T08:01:16.212Z,14.08
2022-09-21T08:03:42.967Z,13.99
2022-09-21T08:06:09.898Z,13.82
2022-09-21T08:08:37.815Z,13.77
2022-09-21T08:11:05.702Z,14.31
2022-09-21T08:13:32.742Z,14.55
2022-09-21T08:16:03.108Z,14.42
2022-09-21T08:18:30.621Z,14.52
2022-09-21T08:21:00.222Z,14.48
2022-09-21T08:23:30.629Z,14.67
2022-09-21T08:26:07.886Z,14.72
2022-09-21T08:28:38.676Z,14.89
2022-09-21T08:31:08.658Z,14.80
2022-09-21T08:33:35.419Z,15.04
2022-09-21T08:36:04.268Z,15.06
2022-09-21T08:38:35.860Z,15.26
2022-09-21T08:41:30.120Z,15.60
2022-09-21T08:44:04.520Z,15.64
2022-09-21T08:46:34.635Z,15.47
2022-09-21T08:49:11.654Z,15.88
2022-09-21T08:51:45.244Z,15.69
2022-09-21T08:54:25.258Z,15.67
2022-09-21T08:57:05.075Z,15.50
2022-09-21T08:59:33.940Z,15.96
2022-09-21T09:02:26.668Z,15.97
2022-09-21T09:05:06.648Z,15.91
2022-09-21T09:08:10.143Z,15.92
2022-09-21T09:10:58.853Z,16.30
2022-09-21T09:13:58.947Z,16.07
2022-09-21T09:16:31.592Z,16.14
2022-09-21T09:19:09.825Z,16.15
2022-09-21T09:21:41.643Z,16.24
2022-09-21T09:24:17.390Z,16.33
2022-09-21T09:26:55.984Z,16.70
2022-09-21T09:29:49.466Z,16.25
2022-09-21T09:32:18.328Z,16.52
2022-09-21T09:35:02.441Z,16.43
2022-09-21T09:37:36.233Z,16.61
2022-09-21T09:40:03.576Z,16.76
2022-09-21T09:42:55.276Z,16.97
2022-09-21T09:45:48.397Z,17.00
2022-09-21T09:48:34.613Z,16.96
2022-09-21T09:51:01.441Z,16.97
2022-09-21T09:53:28.759Z,17.14
2022-09-21T09:55:58.586Z,17.07
2022-09-21T09:58:43.767Z,17.02
2022-09-21T10:01:37.686Z,17.27
2022-09-21T10:04:06.751Z,17.13
2022-09-21T10:06:34.058Z,16.98
2022-09-21T10:09:01.055Z,17.24
2022-09-21T10:11:38.471Z,17.34
2022-09-21T10:14:10.338Z,17.06
2022-09-21T10:16:43.791Z,17.39
2022-09-21T10:19:21.719Z,17.27
2022-09-21T10:21:52.373Z,17.48
2022-09-21T10:24:25.418Z,17.44
2022-09-21T10:26:56.040Z,17.51
2022-09-21T10:29:22.615Z,17.50
2022-09-21T10:31:57.261Z,17.59
2022-09-21T10:34:27.265Z,17.26
2022-09-21T10:36:57.216Z,17.47
2022-09-21T10:39:25.452Z,17.52
2022-09-21T10:42:05.133Z,17.07
2022-09-21T10:44:46.907Z,17.14
2022-09-21T10:47:40.831Z,17.16
2022-09-21T10:50:27.599Z,17.40
2022-09-21T10:53:11.226Z,17.45
2022-09-21T10:55:58.426Z,17.32
2022-09-21T10:58:34.223Z,17.53
2022-09-21T11:01:23.290Z,17.43
2022-09-21T11:03:55.883Z,17.20
2022-09-21T11:06:31.640Z,16.68
2022-09-21T11:09:07.638Z,16.55
2022-09-21T11:11:53.170Z,16.60
2022-09-21T11:14:42.652Z,16.78
2022-09-21T11:17:17.457Z,17.09
2022-09-21T11:20:04.853Z,17.13
2022-09-21T11:22:45.584Z,17.10
2022-09-21T11:25:36.545Z,16.91
2022-09-21T11:28:13.409Z,16.85
2022-09-21T11:30:56.900Z,16.68
2022-09-21T11:33:46.634Z,16.57
2022-09-21T11:36:33.702Z,16.88
2022-09-21T11:39:11.765Z,16.89
2022-09-21T11:41:58.966Z,16.80
2022-09-21T11:44:55.827Z,16.78
2022-09-21T11:47:45.814Z,16.95
2022-09-21T11:50:31.828Z,17.10
2022-09-21T11:53:20.696Z,17.27
2022-09-21T11:56:08.067Z,17.21
2022-09-21T11:58:45.589Z,16.90
2022-09-21T12:01:49.997Z,16.81
2022-09-21T12:04:28.790Z,16.87
2022-09-21T12:07:18.895Z,16.75
2022-09-21T12:10:07.523Z,16.79
2022-09-21T12:12:59.941Z,16.92
2022-09-21T12:15:33.155Z,17.16
2022-09-21T12:18:26.063Z,17.33
2022-09-21T12:21:11.602Z,17.23
2022-09-21T12:24:15.740Z,17.37
2022-09-21T12:26:47.753Z,17.47
2022-09-21T12:29:25.447Z,17.26
2022-09-21T12:32:02.843Z,17.23
2022-09-21T12:34:39.751Z,17.22
2022-09-21T12:37:12.392Z,17.47
2022-09-21T12:39:46.249Z,17.48
2022-09-21T12:42:20.661Z,17.48
2022-09-21T12:44:52.903Z,17.37
2022-09-21T12:47:35.628Z,17.18
2022-09-21T12:50:12.975Z,16.81
2022-09-21T12:52:40.575Z,16.83
2022-09-21T12:55:33.239Z,16.91
2022-09-21T12:58:21.497Z,16.91
2022-09-21T13:01:02.619Z,17.00
2022-09-21T13:03:43.815Z,17.18
2022-09-21T13:06:43.228Z,17.24
2022-09-21T13:09:14.805Z,17.15
2022-09-21T13:12:07.277Z,17.39
2022-09-21T13:14:37.335Z,17.49
2022-09-21T13:17:05.802Z,17.59
2022-09-21T13:19:35.793Z,17.65
2022-09-21T13:22:35.837Z,17.92
2022-09-21T13:25:22.760Z,17.92
2022-09-21T13:28:09.039Z,18.08
2022-09-21T13:31:18.478Z,18.14
2022-09-21T13:34:15.293Z,18.12
2022-09-21T13:36:43.219Z,18.20
2022-09-21T13:39:09.877Z,18.13
2022-09-21T13:41:52.150Z,18.27
2022-09-21T13:44:43.926Z,18.19
2022-09-21T13:47:12.078Z,18.41
2022-09-21T13:50:04.452Z,18.51
2022-09-21T13:52:46.442Z,18.72
2022-09-21T13:55:30.550Z,18.85
2022-09-21T13:58:04.693Z,18.83
2022-09-21T14:00:35.985Z,18.96
2022-09-21T14:03:17.018Z,18.72
2022-09-21T14:05:46.861Z,18.90
2022-09-21T14:08:16.542Z,19.09
2022-09-21T14:10:52.119Z,19.27
2022-09-21T14:13:43.808Z,19.19
2022-09-21T14:16:28.992Z,18.77
2022-09-21T14:18:56.394Z,18.36
2022-09-21T14:21:23.301Z,18.25
2022-09-21T14:24:19.611Z,17.99
2022-09-21T14:26:52.910Z,18.07
2022-09-21T14:29:41.699Z,17.93
2022-09-21T14:32:19.210Z,17.89
2022-09-21T14:34:48.677Z,17.85
2022-09-21T14:37:31.604Z,18.44
2022-09-21T14:40:03.160Z,18.77
2022-09-21T14:42:31.871Z,19.46
2022-09-21T14:45:01.321Z,19.86
2022-09-21T14:47:40.370Z,20.09
2022-09-21T14:50:32.232Z,20.65
2022-09-21T14:53:08.180Z,21.02
2022-09-21T14:55:59.702Z,20.82
2022-09-21T14:58:32.115Z,20.64
2022-09-21T15:01:37.576Z,20.12
2022-09-21T15:04:19.376Z,19.58
2022-09-21T15:07:31.577Z,19.15
2022-09-21T15:10:34.513Z,18.91
2022-09-21T15:13:04.974Z,18.65
2022-09-21T15:16:07.200Z,18.60
2022-09-21T15:18:40.883Z,18.44
2022-09-21T15:21:29.503Z,18.25
2022-09-21T15:23:56.843Z,18.36
2022-09-21T15:26:29.067Z,18.25
2022-09-21T15:29:18.331Z,18.14
2022-09-21T15:31:45.559Z,18.03
2022-09-21T15:34:15.104Z,17.95
2022-09-21T15:36:43.137Z,18.01
2022-09-21T15:39:30.098Z,17.94
2022-09-21T15:42:17.796Z,18.04
2022-09-21T15:44:48.412Z,17.88
2022-09-21T15:47:26.359Z,18.00
2022-09-21T15:49:53.901Z,17.79
2022-09-21T15:52:42.580Z,17.57
2022-09-21T15:55:21.431Z,17.75
2022-09-21T15:57:58.788Z,17.56
2022-09-21T16:00:32.251Z,17.82
2022-09-21T16:03:07.567Z,17.83
2022-09-21T16:05:47.375Z,17.70
2022-09-21T16:08:19.740Z,17.58
2022-09-21T16:10:46.552Z,17.62
2022-09-21T16:13:37.748Z,17.61
2022-09-21T16:16:10.165Z,17.45
2022-09-21T16:18:51.717Z,17.43
2022-09-21T16:21:26.324Z,17.38
2022-09-21T16:23:58.002Z,17.43
2022-09-21T16:26:35.930Z,17.31
2022-09-21T16:29:08.903Z,17.29
2022-09-21T16:31:36.149Z,17.18
2022-09-21T16:34:07.366Z,17.06
2022-09-21T16:36:36.336Z,17.20
2022-09-21T16:39:06.397Z,17.19
2022-09-21T16:41:43.148Z,17.07
2022-09-21T16:44:20.605Z,17.01
2022-09-21T16:46:51.529Z,17.07
2022-09-21T16:49:21.619Z,16.92
2022-09-21T16:51:49.889Z,17.01
2022-09-21T16:54:17.971Z,16.97
2022-09-21T16:56:46.401Z,16.98
2022-09-21T16:59:21.921Z,16.81
2022-09-21T17:01:55.378Z,16.68
2022-09-21T17:04:26.034Z,16.60
2022-09-21T17:06:54.053Z,16.64
2022-09-21T17:09:31.631Z,16.70
2022-09-21T17:12:01.271Z,16.74
2022-09-21T17:14:40.028Z,16.59
2022-09-21T17:17:18.418Z,16.62
2022-09-21T17:19:46.761Z,16.56
2022-09-21T17:22:22.306Z,16.41
2022-09-21T17:24:52.070Z,16.61
2022-09-21T17:27:26.497Z,16.59
2022-09-21T17:29:55.130Z,16.55
2022-09-21T17:32:23.959Z,16.48
2022-09-21T17:34:56.191Z,16.47
2022-09-21T17:37:24.020Z,16.36
2022-09-21T17:39:50.717Z,16.29
2022-09-21T17:42:21.012Z,16.21
2022-09-21T17:45:03.861Z,16.14
2022-09-21T17:47:33.210Z,16.15
2022-09-21T17:50:08.979Z,15.98
2022-09-21T17:52:54.440Z,16.01
2022-09-21T17:55:21.450Z,15.91
2022-09-21T17:58:02.836Z,15.99
2022-09-21T18:01:44.769Z,15.90
2022-09-21T18:04:11.781Z,15.89
2022-09-21T18:06:38.588Z,15.93
2022-09-21T18:09:05.730Z,15.81
2022-09-21T18:11:58.186Z,15.84
2022-09-21T18:14:34.657Z,15.77
2022-09-21T18:17:21.094Z,15.70
2022-09-21T18:20:15.661Z,15.67
2022-09-21T18:22:55.881Z,15.72
2022-09-21T18:25:47.388Z,15.58
2022-09-21T18:28:33.256Z,15.57
2022-09-21T18:31:15.732Z,15.30
2022-09-21T18:33:49.088Z,15.33
2022-09-21T18:36:26.852Z,15.40
2022-09-21T18:39:01.584Z,15.38
2022-09-21T18:41:46.107Z,15.39
2022-09-21T18:44:26.950Z,15.38
2022-09-21T18:47:27.863Z,15.23
2022-09-21T18:50:20.821Z,15.31
2022-09-21T18:53:02.601Z,15.18
2022-09-21T18:55:33.006Z,15.19
2022-09-21T18:58:00.885Z,15.30
2022-09-21T19:00:32.784Z,15.24
2022-09-21T19:03:23.612Z,15.13
2022-09-21T19:06:17.830Z,15.04
2022-09-21T19:09:12.542Z,15.00
2022-09-21T19:11:45.287Z,15.02
2022-09-21T19:14:32.276Z,15.07
2022-09-21T19:17:13.809Z,15.00
2022-09-21T19:20:00.791Z,14.93
2022-09-21T19:22:40.598Z,14.96
2022-09-21T19:25:34.159Z,14.98
2022-09-21T19:28:22.049Z,15.01
2022-09-21T19:30:58.295Z,14.95
2022-09-21T19:33:49.421Z,14.90
2022-09-21T19:36:17.440Z,14.96
2022-09-21T19:38:44.445Z,15.04
2022-09-21T19:41:28.962Z,14.94
2022-09-21T19:44:45.521Z,14.96
2022-09-21T19:47:19.214Z,14.97
2022-09-21T19:49:54.311Z,15.10
2022-09-21T19:52:30.662Z,14.95
2022-09-21T19:55:16.650Z,14.78
2022-09-21T19:58:02.368Z,14.96
2022-09-21T20:00:29.454Z,14.95
2022-09-21T20:03:04.839Z,15.04
2022-09-21T20:05:47.643Z,14.83
2022-09-21T20:08:24.809Z,15.02
2022-09-21T20:11:07.612Z,14.85
2022-09-21T20:13:40.688Z,14.80
2022-09-21T20:16:43.845Z,14.77
2022-09-21T20:19:36.447Z,15.09
2022-09-21T20:22:11.156Z,14.68
2022-09-21T20:24:59.885Z,14.64
2022-09-21T20:27:40.036Z,14.52
2022-09-21T20:30:15.565Z,14.51
2022-09-21T20:32:45.923Z,14.43
2022-09-21T20:35:20.261Z,14.44
2022-09-21T20:37:47.271Z,14.29
2022-09-21T20:40:15.440Z,14.33
2022-09-21T20:42:42.473Z,14.20
2022-09-21T20:45:14.094Z,14.30
2022-09-21T20:47:40.826Z,14.31
2022-09-21T20:50:12.693Z,14.31
2022-09-21T20:52:41.428Z,14.17
2022-09-21T20:55:10.837Z,14.01
2022-09-21T20:57:37.518Z,14.06
2022-09-21T21:00:06.992Z,13.95
2022-09-21T21:02:34.324Z,14.09
2022-09-21T21:05:01.041Z,14.06
2022-09-21T21:07:30.497Z,14.04
2022-09-21T21:09:58.725Z,14.08
2022-09-21T21:12:26.201Z,14.03
2022-09-21T21:14:53.016Z,14.01
2022-09-21T21:17:20.003Z,13.92
2022-09-21T21:19:46.621Z,13.97
2022-09-21T21:22:13.752Z,14.07
2022-09-21T21:24:41.973Z,14.07
2022-09-21T21:27:16.332Z,13.91
2022-09-21T21:29:50.054Z,13.66
2022-09-21T21:32:23.750Z,13.65
2022-09-21T21:34:52.653Z,13.56
2022-09-21T21:37:21.746Z,13.49
2022-09-21T21:39:48.390Z,13.39
2022-09-21T21:42:15.593Z,13.37
2022-09-21T21:44:42.399Z,13.34
2022-09-21T21:47:37.761Z,13.26
2022-09-21T21:49:57.206Z,13.23
2022-09-21T21:52:23.950Z,13.07
2022-09-21T21:54:50.832Z,13.02
2022-09-21T21:57:17.485Z,13.20
2022-09-21T21:59:44.487Z,13.29
2022-09-21T22:02:11.473Z,13.37
2022-09-21T22:04:38.716Z,13.78
2022-09-21T22:07:05.824Z,13.87
2022-09-21T22:09:32.837Z,13.62
2022-09-21T22:12:01.905Z,13.58
2022-09-21T22:14:28.861Z,13.53
2022-09-21T22:16:55.804Z,13.57
2022-09-21T22:19:22.469Z,13.49
2022-09-21T22:21:53.806Z,13.70
2022-09-21T22:24:21.720Z,13.73
2022-09-21T22:26:48.713Z,13.77
2022-09-21T22:29:17.218Z,13.80
2022-09-21T22:31:49.603Z,13.78
2022-09-21T22:34:16.921Z,13.87
2022-09-21T22:36:44.077Z,13.92
2022-09-21T22:39:12.173Z,13.82
2022-09-21T22:41:41.333Z,13.76
2022-09-21T22:44:08.943Z,13.55
2022-09-21T22:46:36.649Z,13.53
2022-09-21T22:49:03.875Z,13.34
2022-09-21T22:51:30.793Z,13.31
2022-09-21T22:53:57.967Z,13.42
2022-09-21T22:56:27.220Z,13.41
2022-09-21T22:58:56.015Z,13.40
2022-09-21T23:01:25.870Z,13.27
2022-09-21T23:03:55.796Z,13.25
2022-09-21T23:06:26.570Z,13.05
2022-09-21T23:08:56.183Z,13.20
2022-09-21T23:11:31.714Z,13.15
2022-09-21T23:13:59.341Z,12.91
2022-09-21T23:16:27.960Z,12.97
2022-09-21T23:18:54.857Z,12.88
2022-09-21T23:21:24.690Z,12.81
2022-09-21T23:23:59.863Z,12.92
2022-09-21T23:26:28.459Z,12.70
2022-09-21T23:29:00.489Z,12.75
2022-09-21T23:31:28.299Z,12.63
2022-09-21T23:33:57.753Z,12.74
2022-09-21T23:36:27.769Z,12.82
2022-09-21T23:38:55.184Z,12.69
2022-09-21T23:41:27.066Z,12.65
2022-09-21T23:43:54.476Z,12.66
2022-09-21T23:46:24.470Z,12.62
2022-09-21T23:48:51.736Z,12.53
2022-09-21T23:51:18.715Z,12.43
2022-09-21T23:53:46.035Z,12.30
2022-09-21T23:56:18.008Z,12.20
2022-09-21T23:58:45.468Z,12.23
